Time;durP1;ratioP1;P1;durP2;ratioP2;P2;SDS_P1;SDS_P2;PMS_P1;PMS_P2;Temp;Humidity;BMP_temperature;BMP_pressure;BME280_temperature;BME280_humidity;BME280_pressure;Samples;Min_cycle;Max_cycle;Signal;HPM_P1;HPM_P2
2021/01/15 00:01:04;;;;;;;26.52;11.15;;;-0.20;99.90;;;;;;5033571;28;20083;-66
2021/01/15 00:03:39;;;;;;;23.17;10.10;;;-0.20;99.90;;;;;;5033268;28;20032;-66
2021/01/15 00:06:05;;;;;;;25.58;11.75;;;-0.20;99.90;;;;;;5033735;28;20017;-66
2021/01/15 00:08:40;;;;;;;19.75;9.48;;;-0.20;99.90;;;;;;5033632;28;20025;-66
2021/01/15 00:11:14;;;;;;;18.60;9.48;;;-0.40;99.90;;;;;;5033252;28;20578;-66
2021/01/15 00:13:39;;;;;;;24.17;11.57;;;-0.50;99.90;;;;;;5033202;28;20100;-66
2021/01/15 00:16:05;;;;;;;22.85;10.27;;;-0.50;99.90;;;;;;5032023;28;20063;-66
2021/01/15 00:18:30;;;;;;;21.33;10.55;;;-0.60;99.90;;;;;;5033253;28;20080;-66
2021/01/15 00:20:56;;;;;;;20.92;9.55;;;-0.70;99.90;;;;;;5033212;28;20032;-66
2021/01/15 00:23:21;;;;;;;21.27;10.25;;;-0.60;99.90;;;;;;5032777;28;20075;-66
2021/01/15 00:25:47;;;;;;;22.60;11.23;;;-0.50;99.90;;;;;;5033138;28;20383;-66
2021/01/15 00:28:12;;;;;;;18.42;9.07;;;-0.50;99.90;;;;;;5033089;28;20100;-66
2021/01/15 00:30:38;;;;;;;22.02;9.32;;;-0.20;99.90;;;;;;5031762;28;20026;-66
2021/01/15 00:33:04;;;;;;;22.23;10.68;;;-0.10;99.90;;;;;;5031518;28;20027;-66
2021/01/15 00:35:29;;;;;;;22.08;10.50;;;-0.10;99.90;;;;;;5032943;28;20033;-66
2021/01/15 00:37:55;;;;;;;20.88;10.13;;;-0.10;99.90;;;;;;5032850;28;20163;-66
2021/01/15 00:40:21;;;;;;;18.13;9.27;;;-0.20;99.90;;;;;;5032772;28;20476;-66
2021/01/15 00:42:46;;;;;;;25.50;11.13;;;-0.20;99.90;;;;;;5032744;28;20112;-66
2021/01/15 00:45:16;;;;;;;41.60;15.45;;;-0.30;99.90;;;;;;5032839;28;20032;-66
2021/01/15 00:47:43;;;;;;;;;;;-0.40;99.90;;;;;;5033222;28;20053;-66
2021/01/15 00:50:09;;;;;;;42.35;16.55;;;-0.40;99.90;;;;;;5032800;28;20355;-66
2021/01/15 00:52:34;;;;;;;26.38;11.02;;;-0.40;99.90;;;;;;5032311;28;20117;-66
2021/01/15 00:55:00;;;;;;;26.08;10.93;;;-0.40;99.90;;;;;;5032571;28;20105;-66
2021/01/15 00:57:25;;;;;;;21.70;10.80;;;-0.20;99.90;;;;;;5032551;28;20029;-66
2021/01/15 00:59:51;;;;;;;35.58;14.63;;;-0.20;99.90;;;;;;5032365;28;20114;-66
2021/01/15 01:02:16;;;;;;;24.52;9.82;;;-0.20;99.90;;;;;;5032263;28;20026;-66
2021/01/15 01:04:42;;;;;;;22.75;10.63;;;-0.20;99.90;;;;;;5032386;28;20033;-66
2021/01/15 01:07:07;;;;;;;21.63;11.23;;;-0.10;99.90;;;;;;5032314;28;20025;-66
2021/01/15 01:09:33;;;;;;;23.13;11.45;;;-0.20;99.90;;;;;;5032112;28;20025;-66
2021/01/15 01:11:59;;;;;;;26.08;10.77;;;-0.30;99.90;;;;;;5032027;28;20025;-66
2021/01/15 01:14:24;;;;;;;22.02;11.05;;;-0.20;99.90;;;;;;5032248;28;20057;-66
2021/01/15 01:16:50;;;;;;;22.60;10.52;;;-0.10;99.90;;;;;;5032246;28;20026;-66
2021/01/15 01:19:15;;;;;;;21.95;11.05;;;-0.10;99.90;;;;;;5032102;28;20036;-66
2021/01/15 01:21:41;;;;;;;25.10;11.77;;;-0.20;99.90;;;;;;5031237;28;20068;-66
2021/01/15 01:24:07;;;;;;;38.08;13.32;;;-0.20;99.90;;;;;;5031798;28;20036;-66
2021/01/15 01:26:32;;;;;;;25.80;11.25;;;-0.10;99.90;;;;;;5032020;28;20117;-66
2021/01/15 01:28:58;;;;;;;21.45;10.90;;;-0.10;99.90;;;;;;5031988;28;20281;-66
2021/01/15 01:31:23;;;;;;;22.60;10.55;;;0.00;99.90;;;;;;5031960;28;20498;-66
2021/01/15 01:33:49;;;;;;;22.10;11.15;;;0.00;99.90;;;;;;5031718;28;20031;-66
2021/01/15 01:36:14;;;;;;;24.42;10.05;;;0.00;99.90;;;;;;5031764;28;20042;-66
2021/01/15 01:38:42;;;;;;;20.25;9.10;;;-0.10;99.90;;;;;;5030458;28;20136;-66
2021/01/15 01:41:08;;;;;;;17.42;8.00;;;0.00;99.90;;;;;;5031799;28;20018;-66
2021/01/15 01:43:33;;;;;;;16.25;7.38;;;0.10;98.40;;;;;;5031493;28;20033;-66
2021/01/15 01:46:04;;;;;;;17.25;8.18;;;0.20;97.80;;;;;;5030421;28;20479;-66
2021/01/15 01:48:31;;;;;;;21.95;9.13;;;0.10;98.70;;;;;;5031787;28;20028;-66
2021/01/15 01:50:56;;;;;;;16.05;8.82;;;0.00;99.10;;;;;;5031801;28;20026;-66
2021/01/15 01:53:27;;;;;;;16.33;7.40;;;0.00;99.90;;;;;;5031721;28;20487;-66
2021/01/15 01:55:53;;;;;;;14.60;7.97;;;0.00;99.40;;;;;;5031901;28;20456;-66
2021/01/15 01:58:19;;;;;;;19.05;9.00;;;0.20;99.50;;;;;;5031958;28;20029;-66
2021/01/15 02:00:52;;;;;;;16.73;7.35;;;0.30;99.30;;;;;;5030468;28;20030;-66
2021/01/15 02:03:18;;;;;;;16.83;8.30;;;0.20;99.50;;;;;;5031586;28;20025;-67
2021/01/15 02:05:44;;;;;;;16.30;7.93;;;0.20;99.70;;;;;;5031666;28;20487;-66
2021/01/15 02:08:10;;;;;;;17.35;7.13;;;0.20;99.30;;;;;;5031582;28;20104;-66
2021/01/15 02:10:43;;;;;;;28.27;10.43;;;0.10;99.50;;;;;;5031383;28;20539;-66
2021/01/15 02:13:28;;;;;;;22.90;10.10;;;0.00;99.40;;;;;;5031295;28;20054;-66
2021/01/15 02:16:09;;;;;;;22.08;9.05;;;-0.10;99.30;;;;;;5031453;28;20083;-66
2021/01/15 02:18:46;;;;;;;17.83;8.68;;;0.00;99.90;;;;;;5031238;28;20052;-66
2021/01/15 02:21:36;;;;;;;19.75;7.93;;;0.00;99.90;;;;;;5031255;28;20018;-66
2021/01/15 02:24:29;;;;;;;18.33;8.68;;;-0.10;99.90;;;;;;5030850;28;20036;-66
2021/01/15 02:27:09;;;;;;;19.38;8.88;;;-0.20;99.90;;;;;;5029843;28;20032;-66
2021/01/15 02:29:46;;;;;;;21.88;9.88;;;-0.20;99.90;;;;;;5030967;28;20480;-66
2021/01/15 02:32:29;;;;;;;21.55;9.73;;;-0.20;99.90;;;;;;5030846;28;20091;-66
2021/01/15 02:35:09;;;;;;;19.38;9.48;;;-0.20;99.90;;;;;;5030125;28;20105;-66
2021/01/15 02:37:52;;;;;;;;;;;-0.20;99.90;;;;;;5031667;28;20149;-66
2021/01/15 02:40:48;;;;;;;24.70;9.77;;;-0.20;99.90;;;;;;5030862;28;19905;-66
2021/01/15 02:43:16;;;;;;;22.98;10.35;;;-0.10;99.90;;;;;;5001914;28;20053;-66
2021/01/15 02:45:42;;;;;;;21.33;10.10;;;-0.20;99.90;;;;;;5030918;28;20100;-66
2021/01/15 02:48:14;;;;;;;17.60;8.48;;;-0.10;99.90;;;;;;5030913;28;20540;-66
2021/01/15 02:50:40;;;;;;;20.63;8.80;;;-0.10;99.90;;;;;;5030808;28;20664;-66
2021/01/15 02:53:06;;;;;;;20.80;9.38;;;-0.10;99.90;;;;;;5029212;28;20033;-67
2021/01/15 02:55:32;;;;;;;20.05;9.60;;;-0.10;99.90;;;;;;5030721;28;20044;-66
2021/01/15 02:57:58;;;;;;;18.70;9.55;;;-0.10;99.90;;;;;;5030719;28;20033;-66
2021/01/15 03:00:23;;;;;;;21.70;10.07;;;-0.10;99.90;;;;;;5029286;28;20429;-66
2021/01/15 03:03:14;;;;;;;17.30;9.30;;;-0.10;99.90;;;;;;5030429;28;20456;-66
2021/01/15 03:06:09;;;;;;;18.75;9.10;;;0.00;99.90;;;;;;5030580;28;20022;-66
2021/01/15 03:08:37;;;;;;;21.75;9.70;;;-0.10;99.90;;;;;;5030005;28;20057;-66
2021/01/15 03:11:05;;;;;;;17.33;9.35;;;-0.10;99.90;;;;;;5030587;28;20013;-66
2021/01/15 03:13:31;;;;;;;23.00;10.25;;;0.00;99.90;;;;;;5030375;28;20096;-66
2021/01/15 03:16:00;;;;;;;18.40;10.13;;;-0.10;99.90;;;;;;5030930;28;20037;-66
2021/01/15 03:18:26;;;;;;;18.10;8.88;;;0.10;99.90;;;;;;5030403;28;20039;-66
2021/01/15 03:20:52;;;;;;;18.65;9.32;;;0.30;99.90;;;;;;5030451;28;20025;-66
2021/01/15 03:23:18;;;;;;;20.50;10.35;;;0.20;99.90;;;;;;5028815;28;20026;-66
2021/01/15 03:25:44;;;;;;;23.02;10.23;;;0.10;99.90;;;;;;5030420;28;20048;-66
2021/01/15 03:28:10;;;;;;;18.35;9.82;;;0.00;99.90;;;;;;5029100;28;20112;-66
2021/01/15 03:30:35;;;;;;;21.35;10.77;;;-0.10;99.90;;;;;;5030359;28;20030;-66
2021/01/15 03:33:04;;;;;;;20.05;10.60;;;-0.10;99.90;;;;;;5028792;28;20030;-66
2021/01/15 03:35:30;;;;;;;21.13;9.93;;;-0.10;99.90;;;;;;5029378;28;20492;-66
2021/01/15 03:38:07;;;;;;;22.42;9.85;;;-0.10;99.90;;;;;;5030260;28;20061;-66
2021/01/15 03:40:35;;;;;;;20.98;10.90;;;-0.10;99.90;;;;;;5030276;28;20036;-66
2021/01/15 03:43:09;;;;;;;21.05;10.00;;;-0.10;99.90;;;;;;5029977;28;20032;-66
2021/01/15 03:45:35;;;;;;;21.08;11.05;;;-0.10;99.90;;;;;;5032150;28;20033;-66
2021/01/15 03:48:00;;;;;;;21.63;10.43;;;-0.10;99.90;;;;;;5033988;28;20032;-66
2021/01/15 03:50:26;;;;;;;25.35;10.95;;;-0.20;99.90;;;;;;5033816;28;20025;-66
2021/01/15 03:52:51;;;;;;;22.15;11.48;;;-0.20;99.90;;;;;;5032171;28;20026;-66
2021/01/15 03:55:17;;;;;;;21.45;11.27;;;-0.20;99.90;;;;;;5032406;28;20036;-66
2021/01/15 03:57:45;;;;;;;20.30;11.73;;;-0.10;99.90;;;;;;5033879;28;20335;-66
2021/01/15 04:00:12;;;;;;;22.70;11.60;;;-0.10;99.90;;;;;;5033556;28;20064;-66
2021/01/15 04:02:37;;;;;;;25.75;11.45;;;-0.20;99.90;;;;;;5033432;28;20035;-66
2021/01/15 04:05:04;;;;;;;24.67;11.85;;;-0.20;99.90;;;;;;5033470;28;20443;-66
2021/01/15 04:07:29;;;;;;;22.83;11.32;;;-0.20;99.90;;;;;;5033479;28;20030;-66
2021/01/15 04:09:55;;;;;;;22.00;11.23;;;-0.20;99.90;;;;;;5033503;28;20044;-66
2021/01/15 04:12:21;;;;;;;23.65;11.75;;;0.00;99.90;;;;;;5033214;28;20021;-66
2021/01/15 04:14:47;;;;;;;22.92;10.70;;;0.20;99.90;;;;;;5033372;28;20083;-66
2021/01/15 04:17:12;;;;;;;21.40;11.57;;;0.20;99.90;;;;;;5033405;28;20053;-66
2021/01/15 04:19:39;;;;;;;24.45;11.80;;;0.20;99.90;;;;;;5033242;28;20392;-66
2021/01/15 04:22:04;;;;;;;21.20;11.40;;;0.10;99.90;;;;;;5032968;28;20500;-66
2021/01/15 04:24:30;;;;;;;24.60;12.05;;;0.00;99.90;;;;;;5033227;28;20503;-66
2021/01/15 04:26:57;;;;;;;22.92;12.13;;;0.00;99.90;;;;;;5032144;28;20025;-66
2021/01/15 04:29:23;;;;;;;27.42;12.63;;;0.10;99.90;;;;;;5033367;28;20065;-66
2021/01/15 04:31:49;;;;;;;28.13;11.98;;;0.30;99.90;;;;;;5033169;28;20265;-66
2021/01/15 04:34:15;;;;;;;16.58;8.63;;;0.40;99.90;;;;;;5032051;28;20490;-66
2021/01/15 04:36:41;;;;;;;25.42;11.05;;;0.40;99.90;;;;;;5031855;28;20068;-66
2021/01/15 04:39:07;;;;;;;22.20;12.10;;;0.20;99.90;;;;;;5033049;28;20021;-66
2021/01/15 04:41:33;;;;;;;25.15;11.32;;;0.20;99.90;;;;;;5033020;28;20036;-66
2021/01/15 04:44:00;;;;;;;21.58;11.55;;;0.30;99.90;;;;;;5032631;28;20029;-66
2021/01/15 04:46:27;;;;;;;25.45;11.80;;;0.30;99.90;;;;;;5032881;28;20115;-66
2021/01/15 04:48:54;;;;;;;26.50;11.95;;;0.20;99.90;;;;;;5032807;28;20390;-66
2021/01/15 04:51:22;;;;;;;22.63;11.82;;;0.20;99.90;;;;;;5032769;28;20017;-66
2021/01/15 04:54:05;;;;;;;25.25;12.25;;;0.20;99.90;;;;;;5032573;28;20049;-66
2021/01/15 04:56:46;;;;;;;22.63;11.88;;;0.40;99.90;;;;;;5031804;28;20034;-66
2021/01/15 04:59:12;;;;;;;25.10;13.10;;;0.20;99.90;;;;;;5032640;28;20026;-66
2021/01/15 05:01:46;;;;;;;28.30;12.82;;;0.30;99.90;;;;;;5032530;28;20032;-66
2021/01/15 05:04:13;;;;;;;27.13;12.43;;;0.20;99.90;;;;;;5032449;28;20047;-66
2021/01/15 05:06:49;;;;;;;28.98;13.70;;;0.30;99.90;;;;;;5032447;28;20488;-66
2021/01/15 05:09:24;;;;;;;25.40;11.80;;;0.30;99.90;;;;;;5032762;28;20072;-66
2021/01/15 05:11:51;;;;;;;21.73;10.73;;;0.30;99.90;;;;;;5017600;28;20049;-66
2021/01/15 05:14:19;;;;;;;23.98;12.35;;;0.20;99.90;;;;;;5012499;28;20531;-66
2021/01/15 05:16:47;;;;;;;19.77;8.35;;;0.30;99.90;;;;;;5011162;28;20073;-66
2021/01/15 05:19:13;;;;;;;21.00;10.10;;;0.30;99.90;;;;;;5012342;28;20152;-66
2021/01/15 05:21:41;;;;;;;25.75;12.95;;;0.30;99.90;;;;;;5017624;28;20025;-66
2021/01/15 05:24:08;;;;;;;24.70;12.43;;;0.30;99.90;;;;;;5031960;28;20049;-66
2021/01/15 05:26:35;;;;;;;24.95;11.25;;;0.20;99.90;;;;;;5032192;28;20025;-66
2021/01/15 05:29:03;;;;;;;26.02;12.43;;;0.10;99.90;;;;;;5019400;28;20033;-66
2021/01/15 05:31:45;;;;;;;31.88;14.45;;;0.20;99.90;;;;;;5021241;28;20075;-66
2021/01/15 05:34:11;;;;;;;26.65;12.80;;;0.20;99.90;;;;;;5020534;28;20108;-66
2021/01/15 05:36:36;;;;;;;28.48;12.23;;;0.20;99.90;;;;;;5020144;28;20157;-66
2021/01/15 05:39:09;;;;;;;31.85;14.95;;;0.20;99.90;;;;;;5021855;28;20352;-66
2021/01/15 05:41:36;;;;;;;29.10;13.68;;;0.30;99.90;;;;;;5021063;28;20511;-66
2021/01/15 05:44:02;;;;;;;29.98;13.82;;;0.30;99.90;;;;;;5019195;28;20026;-66
2021/01/15 05:46:28;;;;;;;27.73;14.05;;;0.30;99.90;;;;;;5021042;28;20601;-66
2021/01/15 05:48:55;;;;;;;27.30;13.02;;;0.20;99.90;;;;;;5020718;28;20022;-66
2021/01/15 05:51:31;;;;;;;31.70;14.55;;;0.20;99.90;;;;;;5019394;28;20480;-67
2021/01/15 05:53:58;;;;;;;30.38;14.05;;;0.30;99.90;;;;;;5019542;28;20091;-66
2021/01/15 05:56:24;;;;;;;28.08;12.93;;;0.40;99.90;;;;;;5021398;28;20076;-66
2021/01/15 05:59:08;;;;;;;30.73;12.25;;;0.30;99.90;;;;;;5025029;28;20431;-66
2021/01/15 06:01:43;;;;;;;29.20;12.70;;;0.20;99.90;;;;;;5030064;28;20025;-66
2021/01/15 06:04:10;;;;;;;35.67;20.90;;;0.20;99.90;;;;;;5029918;28;20025;-66
2021/01/15 06:06:36;;;;;;;29.48;13.57;;;0.20;99.90;;;;;;5031346;28;20017;-66
2021/01/15 06:09:04;;;;;;;34.83;16.50;;;0.20;99.90;;;;;;5030982;28;20113;-66
2021/01/15 06:11:31;;;;;;;29.75;14.30;;;0.30;99.90;;;;;;5031283;28;20049;-66
2021/01/15 06:13:57;;;;;;;28.45;13.70;;;0.40;99.90;;;;;;5031063;28;20411;-66
2021/01/15 06:16:22;;;;;;;32.30;14.27;;;0.30;99.90;;;;;;5031146;28;20029;-66
2021/01/15 06:18:59;;;;;;;28.00;11.20;;;0.20;99.90;;;;;;5031045;28;20109;-65
2021/01/15 06:21:51;;;;;;;29.00;12.43;;;0.30;99.90;;;;;;5031218;28;20100;-66
2021/01/15 06:24:21;;;;;;;30.48;13.85;;;0.20;99.90;;;;;;5023132;28;20036;-66
2021/01/15 06:27:04;;;;;;;29.48;14.07;;;0.20;99.90;;;;;;5029982;28;20045;-66
2021/01/15 06:29:43;;;;;;;32.85;14.57;;;0.20;99.90;;;;;;5029737;28;20063;-66
2021/01/15 06:32:10;;;;;;;32.05;14.13;;;0.20;99.90;;;;;;5030848;28;20013;-66
2021/01/15 06:34:46;;;;;;;30.95;14.63;;;0.20;99.90;;;;;;5029710;28;20037;-66
2021/01/15 06:37:18;;;;;;;32.72;14.30;;;0.20;99.90;;;;;;5031009;28;20024;-66
2021/01/15 06:40:04;;;;;;;32.92;14.85;;;0.20;99.90;;;;;;5031030;28;20113;-66
2021/01/15 06:42:30;;;;;;;23.75;11.45;;;0.20;99.90;;;;;;5030675;28;20116;-66
2021/01/15 06:44:57;;;;;;;27.52;13.88;;;0.20;99.90;;;;;;5028340;28;20025;-66
2021/01/15 06:47:26;;;;;;;30.65;14.45;;;0.10;99.90;;;;;;5030452;28;20030;-66
2021/01/15 06:49:55;;;;;;;28.53;14.37;;;0.20;99.90;;;;;;5024531;28;20029;-66
2021/01/15 06:52:26;;;;;;;31.00;14.47;;;0.10;99.90;;;;;;5023245;28;20456;-66
2021/01/15 06:54:55;;;;;;;32.83;14.20;;;0.30;99.90;;;;;;5029541;28;20037;-66
2021/01/15 06:57:28;;;;;;;27.23;13.85;;;0.20;99.90;;;;;;5030834;28;20488;-66
2021/01/15 06:59:58;;;;;;;29.45;14.52;;;0.20;99.90;;;;;;5030842;28;20026;-66
2021/01/15 07:03:03;;;;;;;30.52;14.60;;;0.20;99.90;;;;;;5030679;28;20024;-66
2021/01/15 07:05:31;;;;;;;31.98;14.68;;;0.30;99.90;;;;;;5029770;28;20120;-66
2021/01/15 07:08:02;;;;;;;30.10;13.85;;;0.30;99.90;;;;;;5029490;28;20471;-66
2021/01/15 07:10:28;;;;;;;27.90;14.02;;;0.30;99.90;;;;;;5030749;28;20049;-66
2021/01/15 07:12:58;;;;;;;26.15;12.85;;;0.30;99.90;;;;;;5030575;28;20488;-67
2021/01/15 07:15:31;;;;;;;29.85;14.57;;;0.30;99.90;;;;;;5020201;28;20136;-65
2021/01/15 07:17:59;;;;;;;28.58;13.63;;;0.30;99.90;;;;;;5030517;28;20360;-65
2021/01/15 07:20:33;;;;;;;28.70;14.50;;;0.30;99.90;;;;;;5032201;28;20205;-65
2021/01/15 07:23:13;;;;;;;33.55;16.10;;;0.40;99.90;;;;;;5034154;28;20013;-65
2021/01/15 07:25:47;;;;;;;26.65;13.43;;;0.30;99.90;;;;;;5034396;28;20030;-65
2021/01/15 07:28:12;;;;;;;29.27;14.32;;;0.50;99.90;;;;;;5034319;28;20537;-65
2021/01/15 07:30:38;;;;;;;32.30;14.15;;;0.50;99.90;;;;;;5034220;28;20029;-65
2021/01/15 07:33:06;;;;;;;29.95;14.40;;;0.50;99.90;;;;;;5034072;28;20057;-65
2021/01/15 07:35:36;;;;;;;31.05;14.63;;;0.40;99.90;;;;;;5032879;28;20022;-64
2021/01/15 07:38:12;;;;;;;;;;;0.30;99.90;;;;;;5034629;28;20105;-64
2021/01/15 07:40:38;;;;;;;28.70;13.07;;;0.40;99.90;;;;;;5034166;28;19912;-64
2021/01/15 07:43:04;;;;;;;28.70;13.13;;;0.40;99.90;;;;;;5033806;28;20029;-65
2021/01/15 07:45:31;;;;;;;32.75;14.35;;;0.40;99.90;;;;;;5033950;28;20416;-64
2021/01/15 07:48:02;;;;;;;29.20;12.90;;;0.40;99.90;;;;;;5034018;28;20638;-64
2021/01/15 07:50:32;;;;;;;28.88;13.13;;;0.30;99.90;;;;;;5033747;28;20036;-64
2021/01/15 07:53:08;;;;;;;29.58;15.13;;;0.30;99.90;;;;;;5033619;28;20018;-64
2021/01/15 07:55:56;;;;;;;29.27;13.82;;;0.30;99.90;;;;;;5032705;28;20021;-64
2021/01/15 07:58:47;;;;;;;27.05;13.15;;;0.40;99.90;;;;;;5033744;28;20045;-64
2021/01/15 08:01:17;;;;;;;25.15;12.15;;;0.50;99.90;;;;;;5033763;28;20018;-64
2021/01/15 08:03:57;;;;;;;24.15;11.93;;;0.50;99.90;;;;;;5033386;28;20045;-64
2021/01/15 08:06:24;;;;;;;26.85;12.57;;;0.50;99.90;;;;;;5033687;28;20021;-64
2021/01/15 08:09:06;;;;;;;25.70;13.43;;;0.50;99.90;;;;;;5033682;28;20411;-64
2021/01/15 08:11:34;;;;;;;25.10;12.38;;;0.60;99.90;;;;;;5033570;28;20100;-64
2021/01/15 08:14:17;;;;;;;26.52;13.60;;;0.70;99.90;;;;;;5033180;28;20033;-64
2021/01/15 08:16:44;;;;;;;22.90;11.35;;;0.70;99.90;;;;;;5033782;28;20041;-64
2021/01/15 08:19:11;;;;;;;50.22;20.73;;;0.70;99.90;;;;;;5033341;28;20043;-64
2021/01/15 08:21:37;;;;;;;27.38;12.35;;;0.80;99.90;;;;;;5032985;28;20029;-64
2021/01/15 08:24:06;;;;;;;28.83;16.30;;;0.80;99.90;;;;;;5026254;28;20035;-64
2021/01/15 08:26:49;;;;;;;37.80;23.20;;;0.80;99.90;;;;;;5013378;28;20022;-64
2021/01/15 08:29:15;;;;;;;26.92;13.02;;;0.80;99.90;;;;;;5031604;28;20045;-65
2021/01/15 08:31:41;;;;;;;29.95;17.83;;;0.70;99.90;;;;;;5032923;28;20024;-64
2021/01/15 08:34:11;;;;;;;34.50;20.30;;;0.60;99.90;;;;;;5032894;28;20029;-65
2021/01/15 08:36:54;;;;;;;30.00;17.60;;;0.90;99.90;;;;;;5033313;28;20033;-64
2021/01/15 08:39:20;;;;;;;55.80;38.72;;;1.00;99.90;;;;;;5032923;28;20049;-64
2021/01/15 08:41:59;;;;;;;34.03;19.80;;;1.10;99.90;;;;;;5031395;28;20137;-64
2021/01/15 08:44:33;;;;;;;38.47;26.25;;;1.10;99.90;;;;;;5032725;28;20032;-64
2021/01/15 08:46:59;;;;;;;27.02;13.57;;;1.10;99.90;;;;;;5032907;28;20434;-65
2021/01/15 08:49:24;;;;;;;32.28;19.95;;;1.20;99.90;;;;;;5032709;28;20025;-64
2021/01/15 08:51:52;;;;;;;37.47;23.73;;;1.20;99.90;;;;;;5032526;28;20018;-65
2021/01/15 08:54:19;;;;;;;27.45;15.88;;;1.20;99.90;;;;;;5032659;28;20112;-64
2021/01/15 08:56:47;;;;;;;31.20;18.92;;;1.40;99.90;;;;;;5032653;28;20025;-65
2021/01/15 08:59:25;;;;;;;33.22;17.83;;;1.40;99.90;;;;;;5032782;28;20028;-65
2021/01/15 09:01:52;;;;;;;39.33;25.98;;;1.40;99.90;;;;;;5032157;28;20064;-65
2021/01/15 09:04:26;;;;;;;28.40;15.35;;;1.40;99.90;;;;;;5032327;28;20124;-64
2021/01/15 09:06:56;;;;;;;36.25;21.48;;;1.50;99.90;;;;;;5032594;28;20483;-64
2021/01/15 09:09:23;;;;;;;30.48;15.23;;;1.50;99.90;;;;;;5032592;28;20034;-65
2021/01/15 09:11:52;;;;;;;30.67;15.45;;;1.50;99.90;;;;;;5032381;28;20061;-64
2021/01/15 09:14:23;;;;;;;29.20;14.77;;;1.50;99.90;;;;;;5032719;28;20029;-64
2021/01/15 09:16:50;;;;;;;40.03;20.88;;;1.50;99.90;;;;;;5032854;28;20032;-65
2021/01/15 09:19:16;;;;;;;30.27;15.68;;;1.50;99.90;;;;;;5032567;28;20028;-64
2021/01/15 09:21:49;;;;;;;27.52;12.75;;;1.70;99.90;;;;;;5030943;28;20491;-64
2021/01/15 09:24:16;;;;;;;26.48;12.77;;;1.60;99.90;;;;;;5032119;28;20037;-65
2021/01/15 09:26:42;;;;;;;25.35;13.65;;;1.60;99.90;;;;;;5032189;28;20068;-64
2021/01/15 09:29:09;;;;;;;27.00;12.75;;;1.70;99.90;;;;;;5032043;28;20481;-65
2021/01/15 09:31:37;;;;;;;25.60;12.32;;;1.70;99.90;;;;;;5032061;28;20021;-65
2021/01/15 09:34:02;;;;;;;25.17;12.15;;;1.60;99.90;;;;;;5031854;28;20025;-65
2021/01/15 09:36:28;;;;;;;22.67;11.40;;;1.70;99.90;;;;;;5031923;28;20032;-65
2021/01/15 09:38:57;;;;;;;22.73;11.57;;;1.70;99.80;;;;;;5032258;28;20057;-65
2021/01/15 09:41:23;;;;;;;27.63;13.43;;;1.80;99.90;;;;;;5031772;28;20040;-65
2021/01/15 09:43:56;;;;;;;25.10;11.20;;;1.80;99.80;;;;;;5031026;28;20504;-65
2021/01/15 09:46:30;;;;;;;20.20;10.48;;;2.00;99.50;;;;;;5031801;28;20128;-65
2021/01/15 09:48:57;;;;;;;20.00;10.48;;;2.00;99.30;;;;;;5030381;28;20507;-65
2021/01/15 09:51:25;;;;;;;19.77;10.77;;;2.10;99.30;;;;;;5031630;28;20530;-65
2021/01/15 09:53:52;;;;;;;20.88;11.02;;;2.20;98.40;;;;;;5031404;28;20100;-65
2021/01/15 09:56:28;;;;;;;20.77;11.35;;;2.30;98.00;;;;;;5031533;28;20036;-65
2021/01/15 09:58:56;;;;;;;20.45;10.68;;;2.30;97.80;;;;;;5031521;28;20029;-65
2021/01/15 10:01:23;;;;;;;27.67;13.50;;;2.40;97.80;;;;;;5031439;28;20105;-65
2021/01/15 10:03:49;;;;;;;23.17;11.93;;;2.50;97.90;;;;;;5029818;28;20036;-65
2021/01/15 10:06:18;;;;;;;21.90;11.50;;;2.30;98.30;;;;;;5030110;28;20026;-65
2021/01/15 10:08:44;;;;;;;18.88;10.00;;;2.30;98.80;;;;;;5031188;28;20108;-65
2021/01/15 10:11:18;;;;;;;19.63;10.30;;;2.30;97.70;;;;;;5031377;28;20049;-64
2021/01/15 10:13:43;;;;;;;19.02;10.15;;;2.30;97.70;;;;;;5031145;28;20036;-65
2021/01/15 10:16:09;;;;;;;21.98;11.10;;;2.30;98.10;;;;;;5031116;28;20029;-65
2021/01/15 10:18:35;;;;;;;23.73;11.20;;;2.30;98.00;;;;;;5031014;28;20060;-65
2021/01/15 10:21:00;;;;;;;25.67;12.93;;;2.40;97.50;;;;;;5031074;28;20021;-69
2021/01/15 10:23:25;;;;;;;18.98;10.68;;;2.30;98.10;;;;;;5030706;28;20510;-64
2021/01/15 10:25:51;;;;;;;17.80;9.38;;;2.10;98.10;;;;;;5031272;28;20082;-64
2021/01/15 10:28:17;;;;;;;19.95;10.68;;;2.00;98.50;;;;;;5030969;28;20021;-65
2021/01/15 10:30:48;;;;;;;20.80;10.07;;;1.90;98.30;;;;;;5030881;28;20035;-65
2021/01/15 10:33:14;;;;;;;20.38;10.75;;;1.90;98.80;;;;;;5029422;28;20021;-65
2021/01/15 10:35:40;;;;;;;25.58;11.45;;;1.80;97.80;;;;;;5030821;28;20509;-65
2021/01/15 10:38:05;;;;;;;19.77;9.95;;;1.80;98.20;;;;;;5031115;28;20087;-65
2021/01/15 10:40:31;;;;;;;20.65;11.02;;;1.70;98.60;;;;;;5030754;28;20041;-65
2021/01/15 10:42:57;;;;;;;19.80;10.45;;;1.80;98.10;;;;;;5029259;28;20053;-66
2021/01/15 10:45:23;;;;;;;24.33;11.45;;;1.90;98.40;;;;;;5030614;28;20549;-65
2021/01/15 10:47:48;;;;;;;22.80;11.88;;;2.10;97.20;;;;;;5030693;28;20423;-65
2021/01/15 10:50:15;;;;;;;15.23;7.72;;;2.10;97.00;;;;;;5030724;28;20144;-65
2021/01/15 10:52:41;;;;;;;20.17;10.20;;;2.00;96.10;;;;;;5030351;28;20022;-65
2021/01/15 10:55:07;;;;;;;16.90;8.68;;;2.10;95.90;;;;;;5031924;28;20036;-65
2021/01/15 10:57:33;;;;;;;19.55;9.95;;;2.30;96.20;;;;;;5033544;28;20112;-65
2021/01/15 10:59:58;;;;;;;16.42;7.68;;;2.40;95.00;;;;;;5034728;28;20057;-65
2021/01/15 11:02:24;;;;;;;19.58;8.70;;;2.40;94.70;;;;;;5034554;28;20037;-65
2021/01/15 11:04:49;;;;;;;14.43;8.05;;;2.30;95.20;;;;;;5034668;28;20022;-70
2021/01/15 11:07:15;;;;;;;29.63;17.60;;;2.40;94.40;;;;;;5033415;28;20083;-65
2021/01/15 11:09:40;;;;;;;15.73;8.20;;;2.60;92.80;;;;;;5034915;28;20030;-65
2021/01/15 11:12:06;;;;;;;19.45;9.95;;;2.60;93.00;;;;;;5034389;28;20439;-65
2021/01/15 11:14:32;;;;;;;15.88;9.18;;;2.50;94.00;;;;;;5034505;28;20036;-65
2021/01/15 11:16:58;;;;;;;17.77;9.15;;;2.40;94.10;;;;;;5034557;28;20025;-65
2021/01/15 11:19:23;;;;;;;17.02;8.48;;;2.30;95.20;;;;;;5034474;28;20096;-65
2021/01/15 11:21:53;;;;;;;14.18;7.93;;;2.30;94.90;;;;;;5034308;28;20087;-65
2021/01/15 11:24:19;;;;;;;17.75;9.30;;;2.20;94.80;;;;;;5032990;28;20032;-65
2021/01/15 11:26:44;;;;;;;15.80;8.70;;;2.10;95.20;;;;;;5033077;28;20113;-65
2021/01/15 11:29:10;;;;;;;17.70;8.35;;;2.10;95.20;;;;;;5034293;28;20072;-65
2021/01/15 11:31:37;;;;;;;18.05;9.65;;;2.10;95.40;;;;;;5034261;28;20025;-65
2021/01/15 11:34:03;;;;;;;20.98;11.02;;;2.10;95.00;;;;;;5034127;28;20535;-65
2021/01/15 11:36:32;;;;;;;17.65;9.57;;;2.00;95.20;;;;;;5034174;28;20083;-65
2021/01/15 11:39:03;;;;;;;61.65;42.97;;;2.00;95.30;;;;;;5033982;28;20048;-65
2021/01/15 11:41:28;;;;;;;22.15;10.82;;;2.00;95.50;;;;;;5034049;28;20434;-66
2021/01/15 11:43:54;;;;;;;18.17;9.77;;;1.90;95.40;;;;;;5033713;28;20079;-65
2021/01/15 11:46:20;;;;;;;19.85;9.43;;;1.80;96.10;;;;;;5033994;28;20021;-65
2021/01/15 11:48:45;;;;;;;17.63;9.00;;;1.70;96.80;;;;;;5032579;28;20376;-65
2021/01/15 11:51:11;;;;;;;18.00;8.82;;;1.60;96.40;;;;;;5033948;28;20026;-65
2021/01/15 11:53:38;;;;;;;19.52;9.80;;;1.70;96.80;;;;;;5022902;28;20034;-65
2021/01/15 11:56:05;;;;;;;21.80;10.40;;;1.70;96.90;;;;;;5021300;28;20101;-65
2021/01/15 11:58:31;;;;;;;20.85;9.90;;;1.70;96.80;;;;;;5029825;28;20155;-66
2021/01/15 12:00:57;;;;;;;20.05;11.48;;;1.70;96.50;;;;;;5032549;28;20477;-66
2021/01/15 12:03:23;;;;;;;19.60;10.55;;;1.70;96.90;;;;;;5033392;28;20033;-66
2021/01/15 12:05:49;;;;;;;22.40;11.65;;;1.80;97.30;;;;;;5033196;28;20065;-65
2021/01/15 12:08:16;;;;;;;19.90;9.27;;;1.90;97.00;;;;;;5032989;28;20036;-65
2021/01/15 12:10:42;;;;;;;18.95;9.50;;;2.00;96.70;;;;;;5033984;28;20433;-65
2021/01/15 12:13:07;;;;;;;18.50;9.57;;;2.50;94.90;;;;;;5032138;28;20040;-65
2021/01/15 12:15:33;;;;;;;18.92;9.98;;;2.50;94.80;;;;;;5033565;28;20082;-66
2021/01/15 12:17:58;;;;;;;24.95;13.02;;;2.60;94.90;;;;;;5033484;28;20026;-66
2021/01/15 12:20:24;;;;;;;20.35;10.77;;;2.70;94.60;;;;;;5033378;28;20025;-65
2021/01/15 12:22:50;;;;;;;26.33;13.43;;;2.80;94.60;;;;;;5022414;28;20030;-65
2021/01/15 12:25:15;;;;;;;21.83;11.68;;;2.80;94.90;;;;;;5027616;28;20099;-65
2021/01/15 12:27:41;;;;;;;19.58;10.88;;;2.80;95.00;;;;;;5033309;28;20056;-65
2021/01/15 12:30:08;;;;;;;19.98;9.95;;;2.90;94.60;;;;;;5032113;28;20025;-65
2021/01/15 12:32:34;;;;;;;19.00;9.98;;;2.90;94.50;;;;;;5033186;28;20143;-65
2021/01/15 12:35:00;;;;;;;41.88;25.20;;;2.80;94.40;;;;;;5033360;28;20056;-65
2021/01/15 12:37:26;;;;;;;25.35;15.10;;;2.80;95.10;;;;;;5033198;28;20038;-65
2021/01/15 12:39:53;;;;;;;19.67;11.30;;;2.90;95.00;;;;;;5033099;28;20029;-65
2021/01/15 12:42:19;;;;;;;24.63;15.43;;;2.80;94.80;;;;;;5032833;28;20112;-65
2021/01/15 12:44:45;;;;;;;24.48;14.27;;;2.70;95.20;;;;;;5032797;28;20113;-66
2021/01/15 12:47:10;;;;;;;20.13;10.88;;;2.70;95.70;;;;;;5032897;28;20022;-65